Jackson, NE (68743)

7:42 PM CDT on August 28, 2015 (GMT -0500)
McCook Lake SD | | Change Station
CLOSE
Current Station
Personal Weather Station
Location: McCook Lake, SD
Elevation: 1114 ft
Nearby Weather Stations

Elev 1114 ft 42.54 °N, 96.51 °W | Updated 2 seconds ago

Overcast
Overcast
63.4 °F
Feels Like 63.4 °F
N
1.0
Wind Variable Wind from North
Gusts 13.0 mph

Today
High -- | Low -- °F
--% Chance of Precip.
Yesterday
High -- | Low -- °F
Precip. -- in
6:46 AM 8:07 PM
Waxing Gibbous, 99% visible
Pressure 29.93 in
Visibility 10.0 miles
Clouds Scattered Clouds 1200 ft
Overcast 2100 ft
Dew Point 61 °F
Humidity 92%
Rainfall 1.94 in
Snow Depth Not available.
UV 0 out of 12
Pollen 4.90 out of 12
Air Quality Not available.
Flu Activity Not available.
SPECI KSUX 290026Z 36012KT 10SM SCT012 OVC021 18/15 A2993 RMK AO2 T01830150
Pressure 29.93 in
Visibility 10.0 miles
Clouds Scattered Clouds 1200 ft
Overcast 2100 ft
Dew Point 61 °F
Humidity 92%
Rainfall 1.94 in
Snow Depth Not available.
UV 0 out of 12
Pollen 4.90 out of 12
Air Quality Not available.
Flu Activity Not available.
SPECI KSUX 290026Z 36012KT 10SM SCT012 OVC021 18/15 A2993 RMK AO2 T01830150

10-Day Weather Forecast

×

Almanac

Astronomy

Aug. 28, 2015 Rise Set
Actual Time
Civil Twilight
Nautical Twilight
Astronomical Twilight
Moon
Length of Visible Light
Length of Day
Tomorrow will be .
, % of the Moon is Illuminated

Today's Extremes

State Highs State Lows

Community

WunderPhotos

Upload Photos

1,850,550 photos uploaded!

WunderBlogs® & News

Nearby

Air Quality

  Air Quality AQ Index Pollutant
Not available.

Snow Depth

Station Depth Elevation

Earthquake Activity

City Distance Mag. Time & Date
Minimum magnitude displayed is 2.5.

Coastal Water Temperatures

Place Temperature

Stations

Nearby Weather Stations

Station Location Temp. Windchill Dew Point Humidity Wind Precip. Elev Updated Type